General Heriberto Jara International Airport
MMVR : rendu visible

Aérodrome :











RETROUVEZ-NOUS SUR...

 
LOGIN :

S'inscrire | Disclaimer

   EN    FR    IT 

 









Légende :    VFR   VFR Marginal   IFR   IFR Intensif   IFR Très Intensif
Visi : 
Plafond : 
>= 8 km
>= 3000ft
5 à 8 km
1000 à 3000 ft
1500m à 5 km
500 à 1000 ft
800 à 1500m
200 à 500 ft
< 800m
< 200 ft
Symboles :   Orages  Brouillard  Fortes neiges  Fortes précipitations  Vent > 20 kt






- Altitude de l'aérodrome : 90 ft
- Code IATA : VER


MMVR - General Heriberto Jara International

DERNIER METAR :
  • 110446Z 01015G25KT 5SM BLSA SCT012 OVC070 24/21 A3009 RMK 8/57/

METARs EXPIRÉS :
  • 110346Z 36020G30KT 5SM BLSA BKN012 OVC070 24/21 A3006 RMK 8/57/
  • 110248Z 36020G30KT 4SM BLSA SKC 25/21 A3001 RMK SLP122 52028 917 WS RWY 01

TAF AMD TAF MMVR
Valide du 11 à 01h jusqu'au 11 à 18h UTC


110044Z 1101/1118 36015KT 3SM BR OVC007 TX27/1118Z TN18/1112Z
TEMPO 1103/1107 35015G40KT 2SM BLSA
FM110900 35015G30KT 4SM BLSA OVC010
TEMPO 1111/1115 3SM -RA BR OVC006



MET'MAP, la Météo Aéronautique d'un coup d'oeil ! - Copyright ORBIFLY Décembre 2007 - Disclaimer

ORBIFLY MET'MAP TEAM :

Programmation & Développement : Alexandra Zaïnal
Sur une idée originale de : Baudouin d'Aumeries
Assistance à la programmation : Marc-Olivier Méhu
Soutien technique & logistique : Manuel Goepfert

Contact : metmap@orbifly.com




SOURCES & CREDITS :

   NOAA       Earth
Advisory